sensor_id;sensor_type;location;lat;lon;timestamp;temperature;humidity
72591;SHT31;60625;51.212;5.952;2023-04-25T00:00:51;6.98;75.66
72591;SHT31;60625;51.212;5.952;2023-04-25T00:05:52;6.95;75.90
72591;SHT31;60625;51.212;5.952;2023-04-25T00:10:53;6.94;76.09
72591;SHT31;60625;51.212;5.952;2023-04-25T00:15:53;6.93;76.27
72591;SHT31;60625;51.212;5.952;2023-04-25T00:20:54;6.91;76.45
72591;SHT31;60625;51.212;5.952;2023-04-25T00:25:55;6.91;76.65
72591;SHT31;60625;51.212;5.952;2023-04-25T00:30:56;6.92;76.75
72591;SHT31;60625;51.212;5.952;2023-04-25T00:35:56;6.92;76.93
72591;SHT31;60625;51.212;5.952;2023-04-25T00:40:56;6.93;77.06
72591;SHT31;60625;51.212;5.952;2023-04-25T00:45:57;6.93;77.09
72591;SHT31;60625;51.212;5.952;2023-04-25T00:51:01;6.92;77.15
72591;SHT31;60625;51.212;5.952;2023-04-25T00:56:01;6.89;77.22
72591;SHT31;60625;51.212;5.952;2023-04-25T01:01:02;6.86;77.39
72591;SHT31;60625;51.212;5.952;2023-04-25T01:06:02;6.82;77.47
72591;SHT31;60625;51.212;5.952;2023-04-25T01:11:04;6.76;77.61
72591;SHT31;60625;51.212;5.952;2023-04-25T01:16:06;6.71;77.78
72591;SHT31;60625;51.212;5.952;2023-04-25T01:21:07;6.67;77.99
72591;SHT31;60625;51.212;5.952;2023-04-25T01:26:13;6.62;78.07
72591;SHT31;60625;51.212;5.952;2023-04-25T01:31:14;6.58;78.14
72591;SHT31;60625;51.212;5.952;2023-04-25T01:36:17;6.55;78.19
72591;SHT31;60625;51.212;5.952;2023-04-25T01:41:19;6.50;78.38
72591;SHT31;60625;51.212;5.952;2023-04-25T01:46:20;6.46;78.60
72591;SHT31;60625;51.212;5.952;2023-04-25T01:51:22;6.41;78.84
72591;SHT31;60625;51.212;5.952;2023-04-25T01:56:23;6.37;79.06
72591;SHT31;60625;51.212;5.952;2023-04-25T02:01:25;6.37;79.10
72591;SHT31;60625;51.212;5.952;2023-04-25T02:06:36;6.37;79.22
72591;SHT31;60625;51.212;5.952;2023-04-25T02:11:36;6.36;79.33
72591;SHT31;60625;51.212;5.952;2023-04-25T02:16:56;6.35;79.50
72591;SHT31;60625;51.212;5.952;2023-04-25T02:21:57;6.34;79.57
72591;SHT31;60625;51.212;5.952;2023-04-25T02:26:58;6.34;79.64
72591;SHT31;60625;51.212;5.952;2023-04-25T02:31:58;6.34;79.67
72591;SHT31;60625;51.212;5.952;2023-04-25T02:37:00;6.33;79.71
72591;SHT31;60625;51.212;5.952;2023-04-25T02:42:00;6.32;79.72
72591;SHT31;60625;51.212;5.952;2023-04-25T02:47:03;6.30;79.80
72591;SHT31;60625;51.212;5.952;2023-04-25T02:52:04;6.29;79.88
72591;SHT31;60625;51.212;5.952;2023-04-25T02:57:05;6.28;79.92
72591;SHT31;60625;51.212;5.952;2023-04-25T03:02:09;6.31;79.92
72591;SHT31;60625;51.212;5.952;2023-04-25T03:07:10;6.31;79.97
72591;SHT31;60625;51.212;5.952;2023-04-25T03:12:11;6.29;80.14
72591;SHT31;60625;51.212;5.952;2023-04-25T03:17:12;6.28;80.17
72591;SHT31;60625;51.212;5.952;2023-04-25T03:22:12;6.28;80.13
72591;SHT31;60625;51.212;5.952;2023-04-25T03:27:14;6.28;80.13
72591;SHT31;60625;51.212;5.952;2023-04-25T03:32:14;6.28;80.10
72591;SHT31;60625;51.212;5.952;2023-04-25T03:37:15;6.27;80.11
72591;SHT31;60625;51.212;5.952;2023-04-25T03:42:16;6.29;80.06
72591;SHT31;60625;51.212;5.952;2023-04-25T03:47:18;6.31;80.00
72591;SHT31;60625;51.212;5.952;2023-04-25T03:52:20;6.32;79.99
72591;SHT31;60625;51.212;5.952;2023-04-25T03:57:21;6.33;80.03
72591;SHT31;60625;51.212;5.952;2023-04-25T04:02:21;6.32;80.06
72591;SHT31;60625;51.212;5.952;2023-04-25T04:07:23;6.34;80.13
72591;SHT31;60625;51.212;5.952;2023-04-25T04:12:27;6.33;80.14
72591;SHT31;60625;51.212;5.952;2023-04-25T04:17:28;6.33;80.25
72591;SHT31;60625;51.212;5.952;2023-04-25T04:22:29;6.34;80.21
72591;SHT31;60625;51.212;5.952;2023-04-25T04:27:33;6.36;80.14
72591;SHT31;60625;51.212;5.952;2023-04-25T04:32:50;6.37;80.04
72591;SHT31;60625;51.212;5.952;2023-04-25T04:37:51;6.38;79.97
72591;SHT31;60625;51.212;5.952;2023-04-25T04:42:53;6.40;79.86
72591;SHT31;60625;51.212;5.952;2023-04-25T04:48:02;6.43;79.68
72591;SHT31;60625;51.212;5.952;2023-04-25T04:53:29;6.47;79.57
72591;SHT31;60625;51.212;5.952;2023-04-25T04:58:48;6.51;79.43
72591;SHT31;60625;51.212;5.952;2023-04-25T05:03:59;6.51;79.34
72591;SHT31;60625;51.212;5.952;2023-04-25T05:09:36;6.56;79.22
72591;SHT31;60625;51.212;5.952;2023-04-25T05:14:45;6.60;79.11
72591;SHT31;60625;51.212;5.952;2023-04-25T05:20:05;6.63;79.08
72591;SHT31;60625;51.212;5.952;2023-04-25T05:25:36;6.68;78.96
72591;SHT31;60625;51.212;5.952;2023-04-25T05:31:03;6.74;78.76
72591;SHT31;60625;51.212;5.952;2023-04-25T05:36:18;6.80;78.68
72591;SHT31;60625;51.212;5.952;2023-04-25T05:41:20;6.85;78.61
72591;SHT31;60625;51.212;5.952;2023-04-25T05:46:42;6.91;78.32
72591;SHT31;60625;51.212;5.952;2023-04-25T05:51:52;6.96;78.18
72591;SHT31;60625;51.212;5.952;2023-04-25T05:57:18;7.03;77.89
72591;SHT31;60625;51.212;5.952;2023-04-25T06:02:24;7.12;77.75
72591;SHT31;60625;51.212;5.952;2023-04-25T06:07:25;7.21;77.32
72591;SHT31;60625;51.212;5.952;2023-04-25T06:12:25;7.32;77.38
72591;SHT31;60625;51.212;5.952;2023-04-25T06:17:26;7.43;76.89
72591;SHT31;60625;51.212;5.952;2023-04-25T06:22:27;7.51;76.54
72591;SHT31;60625;51.212;5.952;2023-04-25T06:27:28;7.59;75.96
72591;SHT31;60625;51.212;5.952;2023-04-25T06:32:28;7.66;75.47
72591;SHT31;60625;51.212;5.952;2023-04-25T06:37:32;7.75;75.18
72591;SHT31;60625;51.212;5.952;2023-04-25T06:42:32;7.84;74.75
72591;SHT31;60625;51.212;5.952;2023-04-25T06:47:33;7.94;73.83
72591;SHT31;60625;51.212;5.952;2023-04-25T06:52:35;7.98;73.33
72591;SHT31;60625;51.212;5.952;2023-04-25T06:57:37;8.13;72.99
72591;SHT31;60625;51.212;5.952;2023-04-25T07:02:58;8.34;71.96
72591;SHT31;60625;51.212;5.952;2023-04-25T07:07:59;8.51;71.39
72591;SHT31;60625;51.212;5.952;2023-04-25T07:13:01;8.61;70.13
72591;SHT31;60625;51.212;5.952;2023-04-25T07:18:02;8.67;69.67
72591;SHT31;60625;51.212;5.952;2023-04-25T07:23:03;8.74;69.39
72591;SHT31;60625;51.212;5.952;2023-04-25T07:28:04;8.86;68.92
72591;SHT31;60625;51.212;5.952;2023-04-25T07:33:05;9.00;68.54
72591;SHT31;60625;51.212;5.952;2023-04-25T07:38:06;9.14;67.62
72591;SHT31;60625;51.212;5.952;2023-04-25T07:43:06;9.25;67.66
72591;SHT31;60625;51.212;5.952;2023-04-25T07:48:21;9.34;66.12
72591;SHT31;60625;51.212;5.952;2023-04-25T07:53:23;9.26;65.10
72591;SHT31;60625;51.212;5.952;2023-04-25T07:58:32;9.28;65.00
72591;SHT31;60625;51.212;5.952;2023-04-25T08:03:34;9.48;64.16
72591;SHT31;60625;51.212;5.952;2023-04-25T08:08:35;9.72;63.28
72591;SHT31;60625;51.212;5.952;2023-04-25T08:13:36;9.85;62.16
72591;SHT31;60625;51.212;5.952;2023-04-25T08:18:37;9.91;62.36
72591;SHT31;60625;51.212;5.952;2023-04-25T08:23:38;10.04;61.04
72591;SHT31;60625;51.212;5.952;2023-04-25T08:28:46;9.95;61.15
72591;SHT31;60625;51.212;5.952;2023-04-25T08:33:47;9.94;61.61
72591;SHT31;60625;51.212;5.952;2023-04-25T08:38:55;10.19;61.76
72591;SHT31;60625;51.212;5.952;2023-04-25T08:43:56;10.34;59.22
72591;SHT31;60625;51.212;5.952;2023-04-25T08:49:01;10.42;58.50
72591;SHT31;60625;51.212;5.952;2023-04-25T08:54:09;10.85;57.78
72591;SHT31;60625;51.212;5.952;2023-04-25T08:59:12;11.03;56.28
72591;SHT31;60625;51.212;5.952;2023-04-25T09:04:14;10.82;57.28
72591;SHT31;60625;51.212;5.952;2023-04-25T09:09:15;10.78;57.64
72591;SHT31;60625;51.212;5.952;2023-04-25T09:14:17;11.09;57.69
72591;SHT31;60625;51.212;5.952;2023-04-25T09:19:38;11.29;55.45
72591;SHT31;60625;51.212;5.952;2023-04-25T09:24:44;11.21;55.85
72591;SHT31;60625;51.212;5.952;2023-04-25T09:29:56;11.10;53.40
72591;SHT31;60625;51.212;5.952;2023-04-25T09:35:02;11.08;54.06
72591;SHT31;60625;51.212;5.952;2023-04-25T09:40:05;11.22;53.76
72591;SHT31;60625;51.212;5.952;2023-04-25T09:45:12;11.31;53.09
72591;SHT31;60625;51.212;5.952;2023-04-25T09:50:16;11.45;53.27
72591;SHT31;60625;51.212;5.952;2023-04-25T09:55:22;11.46;51.51
72591;SHT31;60625;51.212;5.952;2023-04-25T10:00:24;11.40;52.47
72591;SHT31;60625;51.212;5.952;2023-04-25T10:05:25;11.38;51.23
72591;SHT31;60625;51.212;5.952;2023-04-25T10:10:28;11.18;50.31
72591;SHT31;60625;51.212;5.952;2023-04-25T10:15:34;11.03;51.65
72591;SHT31;60625;51.212;5.952;2023-04-25T10:20:38;11.13;53.53
72591;SHT31;60625;51.212;5.952;2023-04-25T10:25:39;11.32;54.01
72591;SHT31;60625;51.212;5.952;2023-04-25T10:31:03;11.46;52.64
72591;SHT31;60625;51.212;5.952;2023-04-25T10:36:11;11.58;51.88
72591;SHT31;60625;51.212;5.952;2023-04-25T10:41:14;11.68;50.69
72591;SHT31;60625;51.212;5.952;2023-04-25T10:46:15;11.64;49.80
72591;SHT31;60625;51.212;5.952;2023-04-25T10:51:17;11.96;50.04
72591;SHT31;60625;51.212;5.952;2023-04-25T10:56:31;12.45;48.66
72591;SHT31;60625;51.212;5.952;2023-04-25T11:01:53;12.79;47.71
72591;SHT31;60625;51.212;5.952;2023-04-25T11:12:24;13.24;49.24
72591;SHT31;60625;51.212;5.952;2023-04-25T11:17:25;12.93;51.65
72591;SHT31;60625;51.212;5.952;2023-04-25T11:22:26;12.33;52.09
72591;SHT31;60625;51.212;5.952;2023-04-25T11:27:28;12.18;53.79
72591;SHT31;60625;51.212;5.952;2023-04-25T11:32:28;12.42;53.28
72591;SHT31;60625;51.212;5.952;2023-04-25T11:37:28;12.60;52.45
72591;SHT31;60625;51.212;5.952;2023-04-25T11:42:29;12.76;49.25
72591;SHT31;60625;51.212;5.952;2023-04-25T11:47:30;13.25;47.85
72591;SHT31;60625;51.212;5.952;2023-04-25T11:52:41;13.42;46.51
72591;SHT31;60625;51.212;5.952;2023-04-25T11:57:45;13.23;45.86
72591;SHT31;60625;51.212;5.952;2023-04-25T12:02:53;12.81;46.15
72591;SHT31;60625;51.212;5.952;2023-04-25T12:07:55;12.57;43.72
72591;SHT31;60625;51.212;5.952;2023-04-25T12:12:56;12.61;44.07
72591;SHT31;60625;51.212;5.952;2023-04-25T12:17:57;12.99;43.98
72591;SHT31;60625;51.212;5.952;2023-04-25T12:22:57;13.48;44.08
72591;SHT31;60625;51.212;5.952;2023-04-25T12:28:14;13.93;43.15
72591;SHT31;60625;51.212;5.952;2023-04-25T12:33:19;13.83;44.72
72591;SHT31;60625;51.212;5.952;2023-04-25T12:38:22;12.98;46.88
72591;SHT31;60625;51.212;5.952;2023-04-25T12:43:22;12.40;48.86
72591;SHT31;60625;51.212;5.952;2023-04-25T12:48:23;12.11;49.58
72591;SHT31;60625;51.212;5.952;2023-04-25T12:53:24;11.79;49.24
72591;SHT31;60625;51.212;5.952;2023-04-25T12:58:24;11.60;49.37
72591;SHT31;60625;51.212;5.952;2023-04-25T13:03:26;11.53;49.69
72591;SHT31;60625;51.212;5.952;2023-04-25T13:08:26;11.48;49.72
72591;SHT31;60625;51.212;5.952;2023-04-25T13:13:27;11.50;49.44
72591;SHT31;60625;51.212;5.952;2023-04-25T13:18:28;11.54;49.85
72591;SHT31;60625;51.212;5.952;2023-04-25T13:23:29;11.77;49.04
72591;SHT31;60625;51.212;5.952;2023-04-25T13:28:30;11.98;48.44
72591;SHT31;60625;51.212;5.952;2023-04-25T13:33:31;12.26;46.98
72591;SHT31;60625;51.212;5.952;2023-04-25T13:38:32;12.63;46.94
72591;SHT31;60625;51.212;5.952;2023-04-25T13:43:32;13.05;46.26
72591;SHT31;60625;51.212;5.952;2023-04-25T13:48:34;13.30;44.65
72591;SHT31;60625;51.212;5.952;2023-04-25T13:53:35;13.51;44.40
72591;SHT31;60625;51.212;5.952;2023-04-25T13:58:35;13.57;44.35
72591;SHT31;60625;51.212;5.952;2023-04-25T14:03:36;13.46;44.51
72591;SHT31;60625;51.212;5.952;2023-04-25T14:08:36;13.30;44.67
72591;SHT31;60625;51.212;5.952;2023-04-25T14:13:37;13.18;44.07
72591;SHT31;60625;51.212;5.952;2023-04-25T14:18:37;13.39;43.90
72591;SHT31;60625;51.212;5.952;2023-04-25T14:23:37;13.61;41.94
72591;SHT31;60625;51.212;5.952;2023-04-25T14:28:38;13.66;41.35
72591;SHT31;60625;51.212;5.952;2023-04-25T14:33:39;13.50;41.91
72591;SHT31;60625;51.212;5.952;2023-04-25T14:38:42;13.00;44.47
72591;SHT31;60625;51.212;5.952;2023-04-25T14:43:43;12.77;45.39
72591;SHT31;60625;51.212;5.952;2023-04-25T14:48:45;12.86;45.01
72591;SHT31;60625;51.212;5.952;2023-04-25T14:53:45;12.90;44.26
72591;SHT31;60625;51.212;5.952;2023-04-25T14:58:46;12.94;43.99
72591;SHT31;60625;51.212;5.952;2023-04-25T15:03:47;13.01;43.17
72591;SHT31;60625;51.212;5.952;2023-04-25T15:08:48;13.12;41.98
72591;SHT31;60625;51.212;5.952;2023-04-25T15:13:48;13.18;41.22
72591;SHT31;60625;51.212;5.952;2023-04-25T15:18:49;13.31;41.88
72591;SHT31;60625;51.212;5.952;2023-04-25T15:23:50;13.37;42.08
72591;SHT31;60625;51.212;5.952;2023-04-25T15:28:51;13.49;41.74
72591;SHT31;60625;51.212;5.952;2023-04-25T15:33:53;13.50;40.58
72591;SHT31;60625;51.212;5.952;2023-04-25T15:38:53;13.42;40.81
72591;SHT31;60625;51.212;5.952;2023-04-25T15:43:54;13.07;43.51
72591;SHT31;60625;51.212;5.952;2023-04-25T15:48:54;13.01;45.15
72591;SHT31;60625;51.212;5.952;2023-04-25T15:53:55;13.02;45.71
72591;SHT31;60625;51.212;5.952;2023-04-25T15:58:56;12.75;45.81
72591;SHT31;60625;51.212;5.952;2023-04-25T16:03:56;12.47;45.62
72591;SHT31;60625;51.212;5.952;2023-04-25T16:08:57;12.24;44.60
72591;SHT31;60625;51.212;5.952;2023-04-25T16:13:58;12.10;44.93
72591;SHT31;60625;51.212;5.952;2023-04-25T16:18:59;12.29;44.51
72591;SHT31;60625;51.212;5.952;2023-04-25T16:23:59;12.46;43.89
72591;SHT31;60625;51.212;5.952;2023-04-25T16:29:02;12.62;44.31
72591;SHT31;60625;51.212;5.952;2023-04-25T16:34:03;12.63;44.29
72591;SHT31;60625;51.212;5.952;2023-04-25T16:39:04;12.30;45.13
72591;SHT31;60625;51.212;5.952;2023-04-25T16:44:07;12.16;45.56
72591;SHT31;60625;51.212;5.952;2023-04-25T16:49:08;12.01;46.31
72591;SHT31;60625;51.212;5.952;2023-04-25T16:54:08;11.83;46.85
72591;SHT31;60625;51.212;5.952;2023-04-25T16:59:09;11.83;47.34
72591;SHT31;60625;51.212;5.952;2023-04-25T17:04:10;11.93;47.19
72591;SHT31;60625;51.212;5.952;2023-04-25T17:09:11;11.90;46.78
72591;SHT31;60625;51.212;5.952;2023-04-25T17:14:11;11.60;46.15
72591;SHT31;60625;51.212;5.952;2023-04-25T17:19:11;11.31;46.76
72591;SHT31;60625;51.212;5.952;2023-04-25T17:24:12;11.27;46.69
72591;SHT31;60625;51.212;5.952;2023-04-25T17:29:14;11.18;46.56
72591;SHT31;60625;51.212;5.952;2023-04-25T17:34:15;11.14;46.85
72591;SHT31;60625;51.212;5.952;2023-04-25T17:39:17;11.08;45.08
72591;SHT31;60625;51.212;5.952;2023-04-25T17:44:19;11.04;45.08
72591;SHT31;60625;51.212;5.952;2023-04-25T17:49:20;11.01;45.35
72591;SHT31;60625;51.212;5.952;2023-04-25T17:54:20;10.92;44.92
72591;SHT31;60625;51.212;5.952;2023-04-25T17:59:21;10.75;45.19
72591;SHT31;60625;51.212;5.952;2023-04-25T18:04:22;10.65;46.16
72591;SHT31;60625;51.212;5.952;2023-04-25T18:09:22;10.51;45.72
72591;SHT31;60625;51.212;5.952;2023-04-25T18:14:24;10.26;46.02
72591;SHT31;60625;51.212;5.952;2023-04-25T18:19:25;10.11;46.65
72591;SHT31;60625;51.212;5.952;2023-04-25T18:24:25;10.04;47.35
72591;SHT31;60625;51.212;5.952;2023-04-25T18:29:26;9.94;47.15
72591;SHT31;60625;51.212;5.952;2023-04-25T18:34:27;9.83;48.01
72591;SHT31;60625;51.212;5.952;2023-04-25T18:39:27;9.70;48.44
72591;SHT31;60625;51.212;5.952;2023-04-25T18:44:28;9.60;49.03
72591;SHT31;60625;51.212;5.952;2023-04-25T18:49:30;9.51;49.53
72591;SHT31;60625;51.212;5.952;2023-04-25T18:54:31;9.35;50.09
72591;SHT31;60625;51.212;5.952;2023-04-25T18:59:32;9.21;51.02
72591;SHT31;60625;51.212;5.952;2023-04-25T19:04:32;9.12;51.56
72591;SHT31;60625;51.212;5.952;2023-04-25T19:09:33;9.00;51.83
72591;SHT31;60625;51.212;5.952;2023-04-25T19:14:33;8.89;52.19
72591;SHT31;60625;51.212;5.952;2023-04-25T19:19:35;8.79;52.53
72591;SHT31;60625;51.212;5.952;2023-04-25T19:24:35;8.66;53.34
72591;SHT31;60625;51.212;5.952;2023-04-25T19:29:35;8.54;54.17
72591;SHT31;60625;51.212;5.952;2023-04-25T19:34:38;8.46;54.83
72591;SHT31;60625;51.212;5.952;2023-04-25T19:39:39;8.41;55.50
72591;SHT31;60625;51.212;5.952;2023-04-25T19:44:40;8.32;56.19
72591;SHT31;60625;51.212;5.952;2023-04-25T19:49:40;8.23;56.79
72591;SHT31;60625;51.212;5.952;2023-04-25T19:54:41;8.11;57.38
72591;SHT31;60625;51.212;5.952;2023-04-25T19:59:41;8.02;58.05
72591;SHT31;60625;51.212;5.952;2023-04-25T20:04:47;7.96;58.46
72591;SHT31;60625;51.212;5.952;2023-04-25T20:09:48;7.89;58.83
72591;SHT31;60625;51.212;5.952;2023-04-25T20:14:49;7.81;59.15
72591;SHT31;60625;51.212;5.952;2023-04-25T20:19:49;7.76;59.48
72591;SHT31;60625;51.212;5.952;2023-04-25T20:24:50;7.73;59.73
72591;SHT31;60625;51.212;5.952;2023-04-25T20:29:51;7.70;59.87
72591;SHT31;60625;51.212;5.952;2023-04-25T20:34:52;7.65;59.99
72591;SHT31;60625;51.212;5.952;2023-04-25T20:39:52;7.58;60.27
72591;SHT31;60625;51.212;5.952;2023-04-25T20:44:53;7.53;60.38
72591;SHT31;60625;51.212;5.952;2023-04-25T20:49:54;7.46;60.72
72591;SHT31;60625;51.212;5.952;2023-04-25T20:54:54;7.41;61.12
72591;SHT31;60625;51.212;5.952;2023-04-25T20:59:55;7.36;61.33
72591;SHT31;60625;51.212;5.952;2023-04-25T21:04:56;7.29;61.50
72591;SHT31;60625;51.212;5.952;2023-04-25T21:09:57;7.19;61.95
72591;SHT31;60625;51.212;5.952;2023-04-25T21:14:57;7.12;62.35
72591;SHT31;60625;51.212;5.952;2023-04-25T21:19:59;7.01;62.76
72591;SHT31;60625;51.212;5.952;2023-04-25T21:24:59;6.91;63.13
72591;SHT31;60625;51.212;5.952;2023-04-25T21:30:05;6.81;63.40
72591;SHT31;60625;51.212;5.952;2023-04-25T21:35:08;6.71;63.65
72591;SHT31;60625;51.212;5.952;2023-04-25T21:40:09;6.64;63.97
72591;SHT31;60625;51.212;5.952;2023-04-25T21:45:09;6.57;64.36
72591;SHT31;60625;51.212;5.952;2023-04-25T21:50:11;6.49;64.54
72591;SHT31;60625;51.212;5.952;2023-04-25T21:55:13;6.36;64.71
72591;SHT31;60625;51.212;5.952;2023-04-25T22:00:15;6.24;64.82
72591;SHT31;60625;51.212;5.952;2023-04-25T22:05:21;6.13;65.07
72591;SHT31;60625;51.212;5.952;2023-04-25T22:10:22;6.07;65.24
72591;SHT31;60625;51.212;5.952;2023-04-25T22:15:24;6.02;65.28
72591;SHT31;60625;51.212;5.952;2023-04-25T22:20:25;6.00;65.37
72591;SHT31;60625;51.212;5.952;2023-04-25T22:25:26;5.95;65.45
72591;SHT31;60625;51.212;5.952;2023-04-25T22:30:27;5.91;65.64
72591;SHT31;60625;51.212;5.952;2023-04-25T22:35:28;5.88;65.81
72591;SHT31;60625;51.212;5.952;2023-04-25T22:40:29;5.84;65.97
72591;SHT31;60625;51.212;5.952;2023-04-25T22:45:29;5.80;66.11
72591;SHT31;60625;51.212;5.952;2023-04-25T22:50:31;5.78;66.48
72591;SHT31;60625;51.212;5.952;2023-04-25T22:55:32;5.75;66.56
72591;SHT31;60625;51.212;5.952;2023-04-25T23:00:33;5.70;66.79
72591;SHT31;60625;51.212;5.952;2023-04-25T23:05:34;5.64;66.94
72591;SHT31;60625;51.212;5.952;2023-04-25T23:10:35;5.57;67.03
72591;SHT31;60625;51.212;5.952;2023-04-25T23:15:36;5.51;67.25
72591;SHT31;60625;51.212;5.952;2023-04-25T23:20:36;5.42;67.52
72591;SHT31;60625;51.212;5.952;2023-04-25T23:25:37;5.35;67.96
72591;SHT31;60625;51.212;5.952;2023-04-25T23:30:40;5.27;68.57
72591;SHT31;60625;51.212;5.952;2023-04-25T23:35:41;5.18;68.82
72591;SHT31;60625;51.212;5.952;2023-04-25T23:40:41;5.04;69.18
72591;SHT31;60625;51.212;5.952;2023-04-25T23:45:42;4.95;69.55
72591;SHT31;60625;51.212;5.952;2023-04-25T23:50:45;4.87;69.97
72591;SHT31;60625;51.212;5.952;2023-04-25T23:55:45;4.84;69.93
